sensor_id;sensor_type;location;lat;lon;timestamp;P1;durP1;ratioP1;P2;durP2;ratioP2
20122;SDS011;10222;50.848;4.336;2023-05-10T00:01:03;7.33;;;4.03;;
20122;SDS011;10222;50.848;4.336;2023-05-10T00:03:32;6.37;;;3.17;;
20122;SDS011;10222;50.848;4.336;2023-05-10T00:06:01;5.03;;;2.93;;
20122;SDS011;10222;50.848;4.336;2023-05-10T00:10:59;6.80;;;3.17;;
20122;SDS011;10222;50.848;4.336;2023-05-10T00:13:27;6.70;;;2.70;;
20122;SDS011;10222;50.848;4.336;2023-05-10T00:15:54;5.30;;;3.17;;
20122;SDS011;10222;50.848;4.336;2023-05-10T00:18:20;5.87;;;2.90;;
20122;SDS011;10222;50.848;4.336;2023-05-10T00:20:47;5.53;;;2.90;;
20122;SDS011;10222;50.848;4.336;2023-05-10T00:23:14;5.60;;;3.00;;
20122;SDS011;10222;50.848;4.336;2023-05-10T00:28:10;6.87;;;3.93;;
20122;SDS011;10222;50.848;4.336;2023-05-10T00:33:06;7.07;;;3.00;;
20122;SDS011;10222;50.848;4.336;2023-05-10T00:38:04;8.67;;;3.57;;
20122;SDS011;10222;50.848;4.336;2023-05-10T00:40:32;10.37;;;3.70;;
20122;SDS011;10222;50.848;4.336;2023-05-10T00:42:58;6.87;;;3.50;;
20122;SDS011;10222;50.848;4.336;2023-05-10T00:45:25;5.30;;;3.43;;
20122;SDS011;10222;50.848;4.336;2023-05-10T00:47:52;8.57;;;3.93;;
20122;SDS011;10222;50.848;4.336;2023-05-10T00:50:22;6.13;;;3.17;;
20122;SDS011;10222;50.848;4.336;2023-05-10T00:52:51;8.63;;;4.10;;
20122;SDS011;10222;50.848;4.336;2023-05-10T00:55:18;8.13;;;3.67;;
20122;SDS011;10222;50.848;4.336;2023-05-10T00:57:47;6.07;;;3.20;;
20122;SDS011;10222;50.848;4.336;2023-05-10T01:02:46;6.47;;;3.60;;
20122;SDS011;10222;50.848;4.336;2023-05-10T01:05:12;6.73;;;4.07;;
20122;SDS011;10222;50.848;4.336;2023-05-10T01:10:08;10.33;;;3.53;;
20122;SDS011;10222;50.848;4.336;2023-05-10T01:15:04;13.13;;;3.97;;
20122;SDS011;10222;50.848;4.336;2023-05-10T01:17:30;6.70;;;3.70;;
20122;SDS011;10222;50.848;4.336;2023-05-10T01:19:58;5.43;;;3.60;;
20122;SDS011;10222;50.848;4.336;2023-05-10T01:34:01;7.37;;;3.77;;
20122;SDS011;10222;50.848;4.336;2023-05-10T01:49:15;6.97;;;4.40;;
20122;SDS011;10222;50.848;4.336;2023-05-10T01:51:49;6.50;;;3.97;;
20122;SDS011;10222;50.848;4.336;2023-05-10T01:54:17;9.27;;;4.10;;
20122;SDS011;10222;50.848;4.336;2023-05-10T01:56:50;6.37;;;3.97;;
20122;SDS011;10222;50.848;4.336;2023-05-10T01:59:20;8.00;;;3.97;;
20122;SDS011;10222;50.848;4.336;2023-05-10T02:04:16;9.10;;;4.33;;
20122;SDS011;10222;50.848;4.336;2023-05-10T02:09:16;8.87;;;4.93;;
20122;SDS011;10222;50.848;4.336;2023-05-10T02:11:44;9.03;;;4.80;;
20122;SDS011;10222;50.848;4.336;2023-05-10T02:14:14;11.63;;;5.33;;
20122;SDS011;10222;50.848;4.336;2023-05-10T02:16:42;9.03;;;4.40;;
20122;SDS011;10222;50.848;4.336;2023-05-10T02:19:08;9.00;;;4.70;;
20122;SDS011;10222;50.848;4.336;2023-05-10T02:26:37;9.03;;;5.17;;
20122;SDS011;10222;50.848;4.336;2023-05-10T02:31:51;11.83;;;5.20;;
20122;SDS011;10222;50.848;4.336;2023-05-10T02:36:46;8.40;;;4.43;;
20122;SDS011;10222;50.848;4.336;2023-05-10T02:39:12;12.23;;;4.97;;
20122;SDS011;10222;50.848;4.336;2023-05-10T02:41:42;10.00;;;4.63;;
20122;SDS011;10222;50.848;4.336;2023-05-10T02:44:12;9.20;;;4.50;;
20122;SDS011;10222;50.848;4.336;2023-05-10T02:46:40;9.73;;;4.23;;
20122;SDS011;10222;50.848;4.336;2023-05-10T02:49:07;7.83;;;4.50;;
20122;SDS011;10222;50.848;4.336;2023-05-10T02:51:34;8.23;;;3.93;;
20122;SDS011;10222;50.848;4.336;2023-05-10T02:54:06;9.97;;;4.73;;
20122;SDS011;10222;50.848;4.336;2023-05-10T02:56:36;7.53;;;3.90;;
20122;SDS011;10222;50.848;4.336;2023-05-10T02:59:04;11.07;;;4.23;;
20122;SDS011;10222;50.848;4.336;2023-05-10T03:01:30;7.47;;;4.13;;
20122;SDS011;10222;50.848;4.336;2023-05-10T03:03:59;8.30;;;3.83;;
20122;SDS011;10222;50.848;4.336;2023-05-10T03:06:29;7.87;;;4.50;;
20122;SDS011;10222;50.848;4.336;2023-05-10T03:08:57;9.87;;;4.63;;
20122;SDS011;10222;50.848;4.336;2023-05-10T03:16:44;10.00;;;4.73;;
20122;SDS011;10222;50.848;4.336;2023-05-10T03:19:15;8.20;;;4.70;;
20122;SDS011;10222;50.848;4.336;2023-05-10T03:21:44;12.37;;;4.87;;
20122;SDS011;10222;50.848;4.336;2023-05-10T03:24:15;9.13;;;4.53;;
20122;SDS011;10222;50.848;4.336;2023-05-10T03:29:14;10.50;;;4.27;;
20122;SDS011;10222;50.848;4.336;2023-05-10T03:31:41;9.87;;;4.93;;
20122;SDS011;10222;50.848;4.336;2023-05-10T03:34:10;9.43;;;4.63;;
20122;SDS011;10222;50.848;4.336;2023-05-10T03:36:38;9.70;;;4.97;;
20122;SDS011;10222;50.848;4.336;2023-05-10T03:39:04;9.73;;;4.53;;
20122;SDS011;10222;50.848;4.336;2023-05-10T03:44:02;9.20;;;4.77;;
20122;SDS011;10222;50.848;4.336;2023-05-10T03:46:29;9.63;;;5.07;;
20122;SDS011;10222;50.848;4.336;2023-05-10T03:48:56;10.40;;;4.77;;
20122;SDS011;10222;50.848;4.336;2023-05-10T03:51:25;14.93;;;5.60;;
20122;SDS011;10222;50.848;4.336;2023-05-10T03:53:54;11.50;;;5.90;;
20122;SDS011;10222;50.848;4.336;2023-05-10T03:56:21;10.73;;;5.67;;
20122;SDS011;10222;50.848;4.336;2023-05-10T03:58:48;14.00;;;5.87;;
20122;SDS011;10222;50.848;4.336;2023-05-10T04:01:14;14.53;;;5.70;;
20122;SDS011;10222;50.848;4.336;2023-05-10T04:03:40;10.30;;;6.00;;
20122;SDS011;10222;50.848;4.336;2023-05-10T04:06:06;11.63;;;5.67;;
20122;SDS011;10222;50.848;4.336;2023-05-10T04:08:34;11.10;;;5.93;;
20122;SDS011;10222;50.848;4.336;2023-05-10T04:11:06;9.17;;;4.87;;
20122;SDS011;10222;50.848;4.336;2023-05-10T04:13:32;11.80;;;6.07;;
20122;SDS011;10222;50.848;4.336;2023-05-10T04:15:58;13.43;;;6.03;;
20122;SDS011;10222;50.848;4.336;2023-05-10T04:18:25;12.37;;;6.40;;
20122;SDS011;10222;50.848;4.336;2023-05-10T04:20:52;12.63;;;6.63;;
20122;SDS011;10222;50.848;4.336;2023-05-10T04:23:18;10.60;;;6.33;;
20122;SDS011;10222;50.848;4.336;2023-05-10T04:25:44;13.33;;;6.37;;
20122;SDS011;10222;50.848;4.336;2023-05-10T04:28:10;12.83;;;7.30;;
20122;SDS011;10222;50.848;4.336;2023-05-10T04:30:36;12.50;;;6.17;;
20122;SDS011;10222;50.848;4.336;2023-05-10T04:33:02;16.07;;;6.80;;
20122;SDS011;10222;50.848;4.336;2023-05-10T04:35:28;15.30;;;6.73;;
20122;SDS011;10222;50.848;4.336;2023-05-10T04:37:54;11.53;;;6.53;;
20122;SDS011;10222;50.848;4.336;2023-05-10T04:40:20;16.00;;;7.13;;
20122;SDS011;10222;50.848;4.336;2023-05-10T04:42:46;12.70;;;6.73;;
20122;SDS011;10222;50.848;4.336;2023-05-10T04:45:15;15.20;;;6.53;;
20122;SDS011;10222;50.848;4.336;2023-05-10T04:47:42;15.50;;;6.30;;
20122;SDS011;10222;50.848;4.336;2023-05-10T04:50:09;15.70;;;8.03;;
20122;SDS011;10222;50.848;4.336;2023-05-10T04:52:35;11.37;;;6.60;;
20122;SDS011;10222;50.848;4.336;2023-05-10T04:55:01;15.97;;;7.20;;
20122;SDS011;10222;50.848;4.336;2023-05-10T04:57:27;16.83;;;7.10;;
20122;SDS011;10222;50.848;4.336;2023-05-10T04:59:53;13.37;;;6.37;;
20122;SDS011;10222;50.848;4.336;2023-05-10T05:02:19;16.17;;;7.13;;
20122;SDS011;10222;50.848;4.336;2023-05-10T05:04:45;16.03;;;7.47;;
20122;SDS011;10222;50.848;4.336;2023-05-10T05:07:11;13.30;;;7.50;;
20122;SDS011;10222;50.848;4.336;2023-05-10T05:09:37;14.40;;;7.37;;
20122;SDS011;10222;50.848;4.336;2023-05-10T05:12:03;10.77;;;6.43;;
20122;SDS011;10222;50.848;4.336;2023-05-10T05:14:29;16.63;;;7.70;;
20122;SDS011;10222;50.848;4.336;2023-05-10T05:16:55;16.00;;;7.70;;
20122;SDS011;10222;50.848;4.336;2023-05-10T05:19:22;12.30;;;6.80;;
20122;SDS011;10222;50.848;4.336;2023-05-10T05:21:48;9.83;;;5.90;;
20122;SDS011;10222;50.848;4.336;2023-05-10T05:24:14;8.27;;;5.03;;
20122;SDS011;10222;50.848;4.336;2023-05-10T05:26:40;9.10;;;4.23;;
20122;SDS011;10222;50.848;4.336;2023-05-10T05:29:06;13.23;;;4.97;;
20122;SDS011;10222;50.848;4.336;2023-05-10T05:31:32;8.90;;;4.70;;
20122;SDS011;10222;50.848;4.336;2023-05-10T05:33:58;10.13;;;4.50;;
20122;SDS011;10222;50.848;4.336;2023-05-10T05:36:24;6.87;;;3.40;;
20122;SDS011;10222;50.848;4.336;2023-05-10T05:38:51;7.57;;;3.60;;
20122;SDS011;10222;50.848;4.336;2023-05-10T05:41:17;7.60;;;3.83;;
20122;SDS011;10222;50.848;4.336;2023-05-10T05:43:43;8.50;;;4.10;;
20122;SDS011;10222;50.848;4.336;2023-05-10T05:46:09;6.87;;;3.83;;
20122;SDS011;10222;50.848;4.336;2023-05-10T05:48:35;9.57;;;4.30;;
20122;SDS011;10222;50.848;4.336;2023-05-10T05:51:01;10.23;;;5.20;;
20122;SDS011;10222;50.848;4.336;2023-05-10T05:53:27;9.97;;;4.97;;
20122;SDS011;10222;50.848;4.336;2023-05-10T05:55:54;11.40;;;4.97;;
20122;SDS011;10222;50.848;4.336;2023-05-10T05:58:20;7.60;;;4.93;;
20122;SDS011;10222;50.848;4.336;2023-05-10T06:00:47;9.47;;;5.23;;
20122;SDS011;10222;50.848;4.336;2023-05-10T06:03:13;9.17;;;4.70;;
20122;SDS011;10222;50.848;4.336;2023-05-10T06:05:39;10.13;;;5.00;;
20122;SDS011;10222;50.848;4.336;2023-05-10T06:08:05;9.43;;;5.37;;
20122;SDS011;10222;50.848;4.336;2023-05-10T06:10:32;12.47;;;6.70;;
20122;SDS011;10222;50.848;4.336;2023-05-10T06:12:58;11.30;;;5.30;;
20122;SDS011;10222;50.848;4.336;2023-05-10T06:15:24;10.93;;;5.77;;
20122;SDS011;10222;50.848;4.336;2023-05-10T06:17:50;15.80;;;5.73;;
20122;SDS011;10222;50.848;4.336;2023-05-10T06:20:16;9.73;;;4.77;;
20122;SDS011;10222;50.848;4.336;2023-05-10T06:22:42;8.77;;;4.77;;
20122;SDS011;10222;50.848;4.336;2023-05-10T06:25:08;10.80;;;5.03;;
20122;SDS011;10222;50.848;4.336;2023-05-10T06:27:34;6.80;;;3.87;;
20122;SDS011;10222;50.848;4.336;2023-05-10T06:30:00;6.23;;;3.70;;
20122;SDS011;10222;50.848;4.336;2023-05-10T06:32:27;8.47;;;3.87;;
20122;SDS011;10222;50.848;4.336;2023-05-10T06:34:53;6.10;;;3.63;;
20122;SDS011;10222;50.848;4.336;2023-05-10T06:37:19;4.67;;;3.50;;
20122;SDS011;10222;50.848;4.336;2023-05-10T06:39:45;8.27;;;3.17;;
20122;SDS011;10222;50.848;4.336;2023-05-10T06:42:11;7.80;;;3.40;;
20122;SDS011;10222;50.848;4.336;2023-05-10T06:44:37;7.60;;;3.67;;
20122;SDS011;10222;50.848;4.336;2023-05-10T06:47:03;10.10;;;4.00;;
20122;SDS011;10222;50.848;4.336;2023-05-10T06:49:29;5.73;;;3.40;;
20122;SDS011;10222;50.848;4.336;2023-05-10T06:51:55;7.67;;;3.43;;
20122;SDS011;10222;50.848;4.336;2023-05-10T06:54:21;7.90;;;3.93;;
20122;SDS011;10222;50.848;4.336;2023-05-10T06:56:48;6.90;;;3.60;;
20122;SDS011;10222;50.848;4.336;2023-05-10T06:59:14;7.57;;;4.03;;
20122;SDS011;10222;50.848;4.336;2023-05-10T07:01:41;5.93;;;3.83;;
20122;SDS011;10222;50.848;4.336;2023-05-10T07:04:07;12.13;;;4.63;;
20122;SDS011;10222;50.848;4.336;2023-05-10T07:06:33;9.53;;;4.07;;
20122;SDS011;10222;50.848;4.336;2023-05-10T07:09:00;9.87;;;4.23;;
20122;SDS011;10222;50.848;4.336;2023-05-10T07:11:26;12.90;;;4.97;;
20122;SDS011;10222;50.848;4.336;2023-05-10T07:13:52;8.70;;;4.27;;
20122;SDS011;10222;50.848;4.336;2023-05-10T07:16:18;9.43;;;4.77;;
20122;SDS011;10222;50.848;4.336;2023-05-10T07:18:44;11.33;;;4.40;;
20122;SDS011;10222;50.848;4.336;2023-05-10T07:21:10;15.27;;;6.00;;
20122;SDS011;10222;50.848;4.336;2023-05-10T07:23:36;9.60;;;4.70;;
20122;SDS011;10222;50.848;4.336;2023-05-10T07:26:02;9.07;;;4.23;;
20122;SDS011;10222;50.848;4.336;2023-05-10T07:28:28;12.10;;;4.33;;
20122;SDS011;10222;50.848;4.336;2023-05-10T07:30:54;13.43;;;4.20;;
20122;SDS011;10222;50.848;4.336;2023-05-10T07:33:20;7.90;;;4.03;;
20122;SDS011;10222;50.848;4.336;2023-05-10T07:35:47;8.77;;;4.37;;
20122;SDS011;10222;50.848;4.336;2023-05-10T07:38:13;10.03;;;4.73;;
20122;SDS011;10222;50.848;4.336;2023-05-10T07:40:39;10.83;;;4.47;;
20122;SDS011;10222;50.848;4.336;2023-05-10T07:43:05;12.60;;;4.50;;
20122;SDS011;10222;50.848;4.336;2023-05-10T07:45:34;10.50;;;4.33;;
20122;SDS011;10222;50.848;4.336;2023-05-10T07:48:00;8.07;;;3.83;;
20122;SDS011;10222;50.848;4.336;2023-05-10T07:50:26;10.80;;;3.93;;
20122;SDS011;10222;50.848;4.336;2023-05-10T07:52:52;9.93;;;4.57;;
20122;SDS011;10222;50.848;4.336;2023-05-10T07:55:18;7.93;;;4.47;;
20122;SDS011;10222;50.848;4.336;2023-05-10T07:57:47;6.37;;;3.67;;
20122;SDS011;10222;50.848;4.336;2023-05-10T08:00:15;8.53;;;3.93;;
20122;SDS011;10222;50.848;4.336;2023-05-10T08:02:42;8.30;;;4.00;;
20122;SDS011;10222;50.848;4.336;2023-05-10T08:05:08;5.67;;;3.53;;
20122;SDS011;10222;50.848;4.336;2023-05-10T08:07:34;10.90;;;4.03;;
20122;SDS011;10222;50.848;4.336;2023-05-10T08:10:01;9.20;;;3.50;;
20122;SDS011;10222;50.848;4.336;2023-05-10T08:12:27;8.80;;;3.53;;
20122;SDS011;10222;50.848;4.336;2023-05-10T08:14:53;7.97;;;3.77;;
20122;SDS011;10222;50.848;4.336;2023-05-10T08:17:19;6.00;;;3.00;;
20122;SDS011;10222;50.848;4.336;2023-05-10T08:19:45;7.17;;;3.37;;
20122;SDS011;10222;50.848;4.336;2023-05-10T08:22:13;6.40;;;2.90;;
20122;SDS011;10222;50.848;4.336;2023-05-10T08:24:39;6.37;;;2.97;;
20122;SDS011;10222;50.848;4.336;2023-05-10T08:27:07;6.43;;;2.33;;
20122;SDS011;10222;50.848;4.336;2023-05-10T08:29:33;3.63;;;2.40;;
20122;SDS011;10222;50.848;4.336;2023-05-10T08:31:59;4.87;;;2.47;;
20122;SDS011;10222;50.848;4.336;2023-05-10T08:34:26;5.07;;;2.83;;
20122;SDS011;10222;50.848;4.336;2023-05-10T08:36:52;4.17;;;2.43;;
20122;SDS011;10222;50.848;4.336;2023-05-10T08:39:18;4.23;;;2.23;;
20122;SDS011;10222;50.848;4.336;2023-05-10T08:41:44;7.13;;;2.57;;
20122;SDS011;10222;50.848;4.336;2023-05-10T08:44:10;5.20;;;2.80;;
20122;SDS011;10222;50.848;4.336;2023-05-10T08:46:37;7.63;;;3.33;;
20122;SDS011;10222;50.848;4.336;2023-05-10T08:49:05;4.40;;;2.70;;
20122;SDS011;10222;50.848;4.336;2023-05-10T08:51:35;5.23;;;2.60;;
20122;SDS011;10222;50.848;4.336;2023-05-10T08:54:02;5.17;;;2.87;;
20122;SDS011;10222;50.848;4.336;2023-05-10T08:56:29;5.13;;;2.53;;
20122;SDS011;10222;50.848;4.336;2023-05-10T08:58:55;6.60;;;3.10;;
20122;SDS011;10222;50.848;4.336;2023-05-10T09:01:21;6.63;;;3.00;;
20122;SDS011;10222;50.848;4.336;2023-05-10T09:03:48;5.90;;;2.93;;
20122;SDS011;10222;50.848;4.336;2023-05-10T09:06:14;5.13;;;2.80;;
20122;SDS011;10222;50.848;4.336;2023-05-10T09:08:41;6.13;;;2.70;;
20122;SDS011;10222;50.848;4.336;2023-05-10T09:11:08;4.97;;;3.13;;
20122;SDS011;10222;50.848;4.336;2023-05-10T09:13:35;4.43;;;2.60;;
20122;SDS011;10222;50.848;4.336;2023-05-10T09:16:02;5.97;;;2.37;;
20122;SDS011;10222;50.848;4.336;2023-05-10T09:18:28;5.07;;;2.50;;
20122;SDS011;10222;50.848;4.336;2023-05-10T09:20:55;7.90;;;2.87;;
20122;SDS011;10222;50.848;4.336;2023-05-10T09:23:21;5.73;;;2.90;;
20122;SDS011;10222;50.848;4.336;2023-05-10T09:25:47;4.93;;;2.70;;
20122;SDS011;10222;50.848;4.336;2023-05-10T09:28:13;3.27;;;2.23;;
20122;SDS011;10222;50.848;4.336;2023-05-10T09:30:39;3.87;;;2.63;;
20122;SDS011;10222;50.848;4.336;2023-05-10T09:33:06;4.83;;;2.47;;
20122;SDS011;10222;50.848;4.336;2023-05-10T09:35:33;7.40;;;2.73;;
20122;SDS011;10222;50.848;4.336;2023-05-10T09:38:00;5.03;;;2.40;;
20122;SDS011;10222;50.848;4.336;2023-05-10T09:40:29;3.47;;;2.40;;
20122;SDS011;10222;50.848;4.336;2023-05-10T09:43:02;6.13;;;2.87;;
20122;SDS011;10222;50.848;4.336;2023-05-10T09:45:29;5.27;;;2.53;;
20122;SDS011;10222;50.848;4.336;2023-05-10T09:47:56;4.30;;;2.37;;
20122;SDS011;10222;50.848;4.336;2023-05-10T09:50:22;6.70;;;2.53;;
20122;SDS011;10222;50.848;4.336;2023-05-10T09:55:15;3.97;;;2.43;;
20122;SDS011;10222;50.848;4.336;2023-05-10T09:57:42;4.83;;;2.77;;
20122;SDS011;10222;50.848;4.336;2023-05-10T10:00:08;3.73;;;2.33;;
20122;SDS011;10222;50.848;4.336;2023-05-10T10:02:38;6.20;;;3.30;;
20122;SDS011;10222;50.848;4.336;2023-05-10T10:05:06;4.77;;;2.47;;
20122;SDS011;10222;50.848;4.336;2023-05-10T10:07:32;4.53;;;3.00;;
20122;SDS011;10222;50.848;4.336;2023-05-10T10:09:58;4.50;;;2.30;;
20122;SDS011;10222;50.848;4.336;2023-05-10T10:12:24;5.93;;;2.87;;
20122;SDS011;10222;50.848;4.336;2023-05-10T10:14:51;4.27;;;2.53;;
20122;SDS011;10222;50.848;4.336;2023-05-10T10:17:18;4.97;;;2.93;;
20122;SDS011;10222;50.848;4.336;2023-05-10T10:19:44;4.93;;;2.73;;
20122;SDS011;10222;50.848;4.336;2023-05-10T10:22:11;4.20;;;2.67;;
20122;SDS011;10222;50.848;4.336;2023-05-10T10:24:37;7.77;;;3.10;;
20122;SDS011;10222;50.848;4.336;2023-05-10T10:27:55;3.97;;;2.50;;
20122;SDS011;10222;50.848;4.336;2023-05-10T10:35:21;4.70;;;2.67;;
20122;SDS011;10222;50.848;4.336;2023-05-10T10:37:47;5.23;;;2.47;;
20122;SDS011;10222;50.848;4.336;2023-05-10T10:40:32;5.23;;;2.57;;
20122;SDS011;10222;50.848;4.336;2023-05-10T10:43:21;3.93;;;2.90;;
20122;SDS011;10222;50.848;4.336;2023-05-10T10:45:47;5.87;;;3.00;;
20122;SDS011;10222;50.848;4.336;2023-05-10T10:48:20;5.73;;;3.20;;
20122;SDS011;10222;50.848;4.336;2023-05-10T10:50:47;6.40;;;2.83;;
20122;SDS011;10222;50.848;4.336;2023-05-10T10:53:13;5.20;;;3.20;;
20122;SDS011;10222;50.848;4.336;2023-05-10T10:55:45;4.60;;;2.87;;
20122;SDS011;10222;50.848;4.336;2023-05-10T10:58:28;7.63;;;3.53;;
20122;SDS011;10222;50.848;4.336;2023-05-10T11:01:17;5.10;;;2.60;;
20122;SDS011;10222;50.848;4.336;2023-05-10T11:06:33;6.07;;;3.60;;
20122;SDS011;10222;50.848;4.336;2023-05-10T11:09:09;9.23;;;3.83;;
20122;SDS011;10222;50.848;4.336;2023-05-10T11:11:36;7.03;;;3.70;;
20122;SDS011;10222;50.848;4.336;2023-05-10T11:14:13;6.00;;;2.57;;
20122;SDS011;10222;50.848;4.336;2023-05-10T11:16:43;6.43;;;3.03;;
20122;SDS011;10222;50.848;4.336;2023-05-10T11:19:16;7.17;;;3.30;;
20122;SDS011;10222;50.848;4.336;2023-05-10T11:21:50;5.37;;;2.73;;
20122;SDS011;10222;50.848;4.336;2023-05-10T11:24:17;6.33;;;3.17;;
20122;SDS011;10222;50.848;4.336;2023-05-10T11:26:43;3.47;;;2.17;;
20122;SDS011;10222;50.848;4.336;2023-05-10T11:29:10;4.10;;;2.57;;
20122;SDS011;10222;50.848;4.336;2023-05-10T11:31:41;4.67;;;2.70;;
20122;SDS011;10222;50.848;4.336;2023-05-10T11:34:08;4.27;;;2.87;;
20122;SDS011;10222;50.848;4.336;2023-05-10T11:36:35;4.97;;;2.83;;
20122;SDS011;10222;50.848;4.336;2023-05-10T11:39:01;4.13;;;2.90;;
20122;SDS011;10222;50.848;4.336;2023-05-10T11:43:57;5.23;;;2.70;;
20122;SDS011;10222;50.848;4.336;2023-05-10T11:48:57;5.17;;;3.00;;
20122;SDS011;10222;50.848;4.336;2023-05-10T11:51:28;5.33;;;3.20;;
20122;SDS011;10222;50.848;4.336;2023-05-10T11:53:56;4.87;;;3.30;;
20122;SDS011;10222;50.848;4.336;2023-05-10T11:56:25;6.47;;;3.50;;
20122;SDS011;10222;50.848;4.336;2023-05-10T12:01:25;5.43;;;3.50;;
20122;SDS011;10222;50.848;4.336;2023-05-10T12:03:52;7.87;;;3.37;;
20122;SDS011;10222;50.848;4.336;2023-05-10T12:06:19;5.23;;;3.70;;
20122;SDS011;10222;50.848;4.336;2023-05-10T12:08:47;5.93;;;3.37;;
20122;SDS011;10222;50.848;4.336;2023-05-10T12:11:13;5.93;;;3.30;;
20122;SDS011;10222;50.848;4.336;2023-05-10T12:13:43;7.07;;;4.07;;
20122;SDS011;10222;50.848;4.336;2023-05-10T12:16:22;8.00;;;3.93;;
20122;SDS011;10222;50.848;4.336;2023-05-10T12:18:48;5.90;;;3.80;;
20122;SDS011;10222;50.848;4.336;2023-05-10T12:23:59;7.83;;;4.23;;
20122;SDS011;10222;50.848;4.336;2023-05-10T12:26:25;7.80;;;4.23;;
20122;SDS011;10222;50.848;4.336;2023-05-10T12:28:52;6.27;;;3.37;;
20122;SDS011;10222;50.848;4.336;2023-05-10T12:31:18;6.70;;;3.67;;
20122;SDS011;10222;50.848;4.336;2023-05-10T12:36:22;7.03;;;3.60;;
20122;SDS011;10222;50.848;4.336;2023-05-10T12:38:59;7.30;;;3.60;;
20122;SDS011;10222;50.848;4.336;2023-05-10T12:41:28;6.70;;;3.50;;
20122;SDS011;10222;50.848;4.336;2023-05-10T12:43:55;6.83;;;3.50;;
20122;SDS011;10222;50.848;4.336;2023-05-10T12:46:22;7.43;;;3.13;;
20122;SDS011;10222;50.848;4.336;2023-05-10T12:48:50;4.67;;;3.33;;
20122;SDS011;10222;50.848;4.336;2023-05-10T12:51:21;4.37;;;2.90;;
20122;SDS011;10222;50.848;4.336;2023-05-10T12:53:53;6.23;;;3.57;;
20122;SDS011;10222;50.848;4.336;2023-05-10T12:56:22;5.53;;;3.20;;
20122;SDS011;10222;50.848;4.336;2023-05-10T12:58:49;4.60;;;3.37;;
20122;SDS011;10222;50.848;4.336;2023-05-10T13:01:19;5.77;;;3.20;;
20122;SDS011;10222;50.848;4.336;2023-05-10T13:03:45;4.33;;;2.90;;
20122;SDS011;10222;50.848;4.336;2023-05-10T13:06:11;4.57;;;2.53;;
20122;SDS011;10222;50.848;4.336;2023-05-10T13:11:08;5.30;;;2.40;;
20122;SDS011;10222;50.848;4.336;2023-05-10T13:13:36;4.53;;;2.53;;
20122;SDS011;10222;50.848;4.336;2023-05-10T13:16:05;5.87;;;2.93;;
20122;SDS011;10222;50.848;4.336;2023-05-10T13:18:35;9.00;;;2.80;;
20122;SDS011;10222;50.848;4.336;2023-05-10T13:21:02;4.90;;;2.80;;
20122;SDS011;10222;50.848;4.336;2023-05-10T13:23:31;4.40;;;2.77;;
20122;SDS011;10222;50.848;4.336;2023-05-10T13:25:57;5.57;;;2.90;;
20122;SDS011;10222;50.848;4.336;2023-05-10T13:28:23;5.70;;;2.97;;
20122;SDS011;10222;50.848;4.336;2023-05-10T13:30:57;7.07;;;3.10;;
20122;SDS011;10222;50.848;4.336;2023-05-10T13:33:25;6.53;;;3.30;;
20122;SDS011;10222;50.848;4.336;2023-05-10T13:35:51;5.63;;;3.27;;
20122;SDS011;10222;50.848;4.336;2023-05-10T13:38:19;6.23;;;3.30;;
20122;SDS011;10222;50.848;4.336;2023-05-10T13:40:47;5.70;;;3.17;;
20122;SDS011;10222;50.848;4.336;2023-05-10T13:43:18;4.20;;;3.33;;
20122;SDS011;10222;50.848;4.336;2023-05-10T13:45:44;5.57;;;3.23;;
20122;SDS011;10222;50.848;4.336;2023-05-10T13:48:11;6.67;;;3.67;;
20122;SDS011;10222;50.848;4.336;2023-05-10T13:53:08;7.87;;;4.50;;
20122;SDS011;10222;50.848;4.336;2023-05-10T13:55:34;6.63;;;4.10;;
20122;SDS011;10222;50.848;4.336;2023-05-10T13:58:00;5.97;;;3.83;;
20122;SDS011;10222;50.848;4.336;2023-05-10T14:00:27;6.73;;;4.07;;
20122;SDS011;10222;50.848;4.336;2023-05-10T14:02:54;6.10;;;3.83;;
20122;SDS011;10222;50.848;4.336;2023-05-10T14:05:21;6.33;;;4.23;;
20122;SDS011;10222;50.848;4.336;2023-05-10T14:07:57;8.00;;;4.53;;
20122;SDS011;10222;50.848;4.336;2023-05-10T14:10:25;7.73;;;4.93;;
20122;SDS011;10222;50.848;4.336;2023-05-10T14:12:51;7.10;;;4.47;;
20122;SDS011;10222;50.848;4.336;2023-05-10T14:15:17;9.90;;;4.67;;
20122;SDS011;10222;50.848;4.336;2023-05-10T14:17:47;10.23;;;4.60;;
20122;SDS011;10222;50.848;4.336;2023-05-10T14:20:17;7.60;;;5.30;;
20122;SDS011;10222;50.848;4.336;2023-05-10T14:22:44;8.20;;;5.27;;
20122;SDS011;10222;50.848;4.336;2023-05-10T14:25:13;8.50;;;5.07;;
20122;SDS011;10222;50.848;4.336;2023-05-10T14:27:40;7.90;;;4.50;;
20122;SDS011;10222;50.848;4.336;2023-05-10T14:30:06;5.50;;;3.50;;
20122;SDS011;10222;50.848;4.336;2023-05-10T14:32:33;7.47;;;3.90;;
20122;SDS011;10222;50.848;4.336;2023-05-10T14:35:04;7.77;;;4.60;;
20122;SDS011;10222;50.848;4.336;2023-05-10T14:37:33;10.60;;;4.87;;
20122;SDS011;10222;50.848;4.336;2023-05-10T14:39:59;8.30;;;4.37;;
20122;SDS011;10222;50.848;4.336;2023-05-10T14:42:27;7.50;;;4.67;;
20122;SDS011;10222;50.848;4.336;2023-05-10T14:44:58;9.80;;;4.80;;
20122;SDS011;10222;50.848;4.336;2023-05-10T14:47:27;13.73;;;4.57;;
20122;SDS011;10222;50.848;4.336;2023-05-10T14:49:55;8.60;;;4.73;;
20122;SDS011;10222;50.848;4.336;2023-05-10T14:52:23;7.67;;;4.97;;
20122;SDS011;10222;50.848;4.336;2023-05-10T14:54:49;7.40;;;4.53;;
20122;SDS011;10222;50.848;4.336;2023-05-10T14:57:17;8.60;;;4.20;;
20122;SDS011;10222;50.848;4.336;2023-05-10T14:59:44;8.00;;;4.80;;
20122;SDS011;10222;50.848;4.336;2023-05-10T15:02:10;9.43;;;5.00;;
20122;SDS011;10222;50.848;4.336;2023-05-10T15:04:36;7.57;;;4.70;;
20122;SDS011;10222;50.848;4.336;2023-05-10T15:07:04;5.47;;;3.67;;
20122;SDS011;10222;50.848;4.336;2023-05-10T15:09:31;8.83;;;4.03;;
20122;SDS011;10222;50.848;4.336;2023-05-10T15:12:03;5.60;;;2.80;;
20122;SDS011;10222;50.848;4.336;2023-05-10T15:14:30;7.47;;;2.30;;
20122;SDS011;10222;50.848;4.336;2023-05-10T15:16:59;3.47;;;2.10;;
20122;SDS011;10222;50.848;4.336;2023-05-10T15:19:26;2.80;;;1.90;;
20122;SDS011;10222;50.848;4.336;2023-05-10T15:21:55;5.40;;;2.00;;
20122;SDS011;10222;50.848;4.336;2023-05-10T15:24:23;6.37;;;1.93;;
20122;SDS011;10222;50.848;4.336;2023-05-10T15:26:51;2.83;;;1.87;;
20122;SDS011;10222;50.848;4.336;2023-05-10T15:29:20;6.97;;;2.00;;
20122;SDS011;10222;50.848;4.336;2023-05-10T15:31:48;3.63;;;1.70;;
20122;SDS011;10222;50.848;4.336;2023-05-10T15:34:14;4.73;;;1.80;;
20122;SDS011;10222;50.848;4.336;2023-05-10T15:36:41;2.63;;;1.80;;
20122;SDS011;10222;50.848;4.336;2023-05-10T15:39:07;3.13;;;1.10;;
20122;SDS011;10222;50.848;4.336;2023-05-10T15:41:37;3.10;;;1.77;;
20122;SDS011;10222;50.848;4.336;2023-05-10T15:44:08;2.97;;;1.60;;
20122;SDS011;10222;50.848;4.336;2023-05-10T15:46:34;4.17;;;1.57;;
20122;SDS011;10222;50.848;4.336;2023-05-10T15:49:03;4.13;;;1.57;;
20122;SDS011;10222;50.848;4.336;2023-05-10T15:51:30;3.60;;;1.37;;
20122;SDS011;10222;50.848;4.336;2023-05-10T15:53:57;4.63;;;1.60;;
20122;SDS011;10222;50.848;4.336;2023-05-10T15:56:23;3.33;;;1.70;;
20122;SDS011;10222;50.848;4.336;2023-05-10T15:58:50;3.40;;;1.60;;
20122;SDS011;10222;50.848;4.336;2023-05-10T16:01:16;4.57;;;1.50;;
20122;SDS011;10222;50.848;4.336;2023-05-10T16:03:42;4.80;;;1.43;;
20122;SDS011;10222;50.848;4.336;2023-05-10T16:06:08;2.80;;;1.57;;
20122;SDS011;10222;50.848;4.336;2023-05-10T16:08:34;3.40;;;1.77;;
20122;SDS011;10222;50.848;4.336;2023-05-10T16:11:00;3.20;;;1.63;;
20122;SDS011;10222;50.848;4.336;2023-05-10T16:13:27;2.80;;;1.53;;
20122;SDS011;10222;50.848;4.336;2023-05-10T16:15:53;6.18;;;2.22;;
20122;SDS011;10222;50.848;4.336;2023-05-10T16:18:19;6.22;;;2.30;;
20122;SDS011;10222;50.848;4.336;2023-05-10T16:20:45;4.47;;;2.17;;
20122;SDS011;10222;50.848;4.336;2023-05-10T16:23:11;8.38;;;2.67;;